Time;durP1;ratioP1;P1;durP2;ratioP2;P2;SDS_P1;SDS_P2;PMS_P1;PMS_P2;Temp;Humidity;BMP_temperature;BMP_pressure;BME280_temperature;BME280_humidity;BME280_pressure;Samples;Min_cycle;Max_cycle;Signal;HPM_P1;HPM_P2
2022/11/08 00:01:45;;;;;;;1.30;1.20;;;20.80;42.70;;;;;;5052302;28;20260;-63
2022/11/08 00:04:13;;;;;;;1.27;1.10;;;20.80;42.70;;;;;;5056187;28;20537;-64
2022/11/08 00:14:53;;;;;;;1.03;0.93;;;20.80;42.70;;;;;;5049713;28;20477;-62
2022/11/08 00:17:20;;;;;;;1.20;1.10;;;20.70;42.60;;;;;;5052418;28;20490;-62
2022/11/08 00:19:46;;;;;;;1.10;1.00;;;20.70;42.60;;;;;;5054815;28;20461;-63
2022/11/08 00:22:13;;;;;;;1.20;1.03;;;20.70;42.60;;;;;;5053339;28;20465;-64
2022/11/08 00:24:38;;;;;;;1.10;1.00;;;20.70;42.60;;;;;;5050451;28;20236;-62
2022/11/08 00:27:07;;;;;;;1.57;1.10;;;20.80;42.70;;;;;;5049710;28;20766;-63
2022/11/08 00:29:34;;;;;;;1.20;1.10;;;20.70;42.60;;;;;;5052558;28;20699;-63
2022/11/08 00:32:01;;;;;;;1.10;1.00;;;20.70;42.60;;;;;;5052443;28;20458;-62
2022/11/08 00:34:26;;;;;;;1.20;1.00;;;20.70;42.60;;;;;;5055973;28;20493;-63
2022/11/08 00:36:55;;;;;;;1.23;1.13;;;20.80;42.70;;;;;;5048342;28;20466;-62
2022/11/08 00:39:20;;;;;;;1.17;1.07;;;20.70;42.60;;;;;;5048334;28;20282;-62
2022/11/08 00:41:46;;;;;;;1.20;1.10;;;20.70;42.60;;;;;;5052515;28;20842;-63
2022/11/08 00:44:11;;;;;;;1.10;1.00;;;20.70;42.60;;;;;;5057167;28;20700;-62
2022/11/08 00:46:37;;;;;;;0.93;0.83;;;20.80;42.70;;;;;;5052358;28;20258;-63
2022/11/08 00:49:04;;;;;;;1.30;1.17;;;20.70;42.60;;;;;;5052014;28;20226;-63
2022/11/08 00:51:30;;;;;;;1.00;0.90;;;20.70;42.70;;;;;;5051814;28;20466;-63
2022/11/08 00:53:56;;;;;;;1.20;1.10;;;20.70;42.60;;;;;;5053169;28;20999;-63
2022/11/08 00:56:22;;;;;;;1.00;0.93;;;20.80;42.80;;;;;;5053697;28;20225;-62
2022/11/08 00:58:48;;;;;;;1.40;0.90;;;20.70;42.70;;;;;;5055093;28;20851;-63
2022/11/08 01:01:18;;;;;;;2.17;1.20;;;20.70;42.60;;;;;;5060198;28;20525;-63
2022/11/08 01:03:45;;;;;;;1.37;1.10;;;20.70;42.70;;;;;;5054694;28;20225;-63
2022/11/08 01:06:13;;;;;;;1.20;1.10;;;20.70;42.70;;;;;;5057254;28;20450;-63
2022/11/08 01:08:39;;;;;;;1.10;1.00;;;20.70;42.70;;;;;;5058480;28;20786;-63
2022/11/08 01:11:08;;;;;;;1.20;1.10;;;20.70;42.70;;;;;;5058371;28;20540;-63
2022/11/08 01:13:34;;;;;;;1.20;1.10;;;20.70;42.70;;;;;;5059637;28;20550;-64
2022/11/08 01:16:14;;;;;;;1.10;1.03;;;20.70;42.70;;;;;;5054937;28;20489;-63
2022/11/08 01:18:40;;;;;;;1.00;1.00;;;20.70;42.70;;;;;;5016426;28;20491;-63
2022/11/08 01:21:06;;;;;;;1.10;0.97;;;20.70;42.70;;;;;;5015686;28;20498;-63
2022/11/08 01:23:33;;;;;;;1.00;0.90;;;20.70;42.80;;;;;;5019726;28;20486;-63
2022/11/08 01:26:07;;;;;;;1.30;1.20;;;20.70;42.70;;;;;;5017640;28;20504;-62
2022/11/08 01:28:33;;;;;;;1.20;1.10;;;20.70;42.70;;;;;;5017467;28;20533;-63
2022/11/08 01:31:18;;;;;;;1.10;1.00;;;20.70;42.80;;;;;;5014567;28;20479;-63
2022/11/08 01:33:43;;;;;;;1.10;0.97;;;20.70;42.70;;;;;;5009338;28;20474;-63
2022/11/08 01:36:11;;;;;;;1.10;1.00;;;20.70;42.80;;;;;;5013391;28;20471;-63
2022/11/08 01:38:37;;;;;;;1.30;1.20;;;20.70;42.70;;;;;;5012929;28;20845;-64
2022/11/08 01:41:03;;;;;;;1.20;1.10;;;20.70;43.50;;;;;;5012468;28;20475;-63
2022/11/08 01:43:28;;;;;;;1.17;1.07;;;20.70;42.80;;;;;;5011315;28;20502;-63
2022/11/08 01:46:19;;;;;;;1.30;1.20;;;20.70;42.80;;;;;;5014273;28;20227;-62
2022/11/08 01:48:56;;;;;;;1.63;1.03;;;20.70;42.70;;;;;;5013776;28;20219;-63
2022/11/08 01:51:27;;;;;;;2.00;1.13;;;20.70;42.80;;;;;;5015179;28;21041;-64
2022/11/08 01:53:53;;;;;;;1.30;1.20;;;20.70;42.90;;;;;;5016260;28;20467;-64
2022/11/08 01:56:20;;;;;;;1.10;1.00;;;20.70;42.80;;;;;;5013162;28;20464;-62
2022/11/08 01:58:48;;;;;;;1.00;0.90;;;20.70;42.80;;;;;;5009909;28;20226;-63
2022/11/08 02:01:14;;;;;;;1.43;1.00;;;20.70;42.80;;;;;;5013603;28;20464;-63
2022/11/08 02:03:40;;;;;;;1.87;0.97;;;20.70;42.90;;;;;;5018466;28;21350;-63
2022/11/08 02:06:06;;;;;;;1.20;1.10;;;20.70;42.80;;;;;;5018728;28;20223;-63
2022/11/08 02:08:37;;;;;;;1.00;0.90;;;20.70;42.90;;;;;;5013704;28;21010;-64
2022/11/08 02:11:03;;;;;;;1.43;0.90;;;20.70;42.80;;;;;;5015646;28;20530;-62
2022/11/08 02:13:31;;;;;;;1.00;0.90;;;20.70;42.90;;;;;;5019172;28;20476;-63
2022/11/08 02:15:57;;;;;;;1.00;0.90;;;20.70;42.80;;;;;;5015310;28;20562;-63
2022/11/08 02:18:25;;;;;;;1.40;1.30;;;20.70;42.90;;;;;;5053211;28;20839;-63
2022/11/08 02:21:06;;;;;;;1.53;1.17;;;20.70;42.80;;;;;;5059100;28;20218;-63
2022/11/08 02:23:49;;;;;;;1.10;1.00;;;20.70;42.80;;;;;;5054557;28;20611;-63
2022/11/08 02:26:16;;;;;;;1.00;0.90;;;20.70;42.90;;;;;;5057302;28;20466;-63
2022/11/08 02:28:43;;;;;;;0.80;0.80;;;20.70;42.90;;;;;;5059439;28;20485;-63
2022/11/08 02:31:15;;;;;;;1.20;1.10;;;20.70;42.90;;;;;;5053169;28;20864;-64
2022/11/08 02:33:41;;;;;;;0.97;0.90;;;20.70;42.90;;;;;;5056198;28;20515;-63
2022/11/08 02:36:10;;;;;;;1.03;0.90;;;20.70;42.90;;;;;;5055653;28;20472;-63
2022/11/08 02:38:41;;;;;;;1.30;1.20;;;20.70;42.90;;;;;;5058062;28;20462;-63
2022/11/08 02:41:07;;;;;;;1.20;1.10;;;20.70;42.90;;;;;;5055367;28;20462;-63
2022/11/08 02:43:33;;;;;;;0.83;0.80;;;20.70;42.90;;;;;;5059911;28;20741;-63
2022/11/08 02:45:59;;;;;;;0.90;0.90;;;20.70;42.90;;;;;;5058932;28;20233;-62
2022/11/08 02:48:25;;;;;;;1.20;1.10;;;20.70;42.90;;;;;;5057531;28;20225;-63
2022/11/08 02:50:50;;;;;;;1.20;1.10;;;20.70;42.80;;;;;;5046783;28;20390;-63
2022/11/08 02:53:16;;;;;;;1.20;1.07;;;20.70;42.90;;;;;;5057138;28;20462;-62
2022/11/08 02:55:42;;;;;;;1.00;0.90;;;20.70;42.90;;;;;;5055792;28;20577;-64
2022/11/08 02:58:08;;;;;;;0.83;0.83;;;20.70;42.90;;;;;;5059432;28;20794;-63
2022/11/08 03:00:34;;;;;;;1.30;1.20;;;20.70;42.90;;;;;;5058708;28;20300;-62
2022/11/08 03:02:59;;;;;;;1.20;1.10;;;20.70;42.90;;;;;;5058415;28;20482;-63
2022/11/08 03:05:27;;;;;;;0.90;0.90;;;20.70;42.90;;;;;;5058886;28;20628;-63
2022/11/08 03:07:54;;;;;;;1.30;0.97;;;20.70;42.90;;;;;;5055976;28;20224;-63
2022/11/08 03:10:20;;;;;;;1.00;0.90;;;20.70;42.80;;;;;;5059456;28;20489;-63
2022/11/08 03:12:46;;;;;;;1.10;1.00;;;20.70;42.90;;;;;;5060644;28;20466;-63
2022/11/08 03:15:13;;;;;;;1.93;1.10;;;20.70;42.90;;;;;;5043102;28;20469;-63
2022/11/08 03:17:39;;;;;;;1.00;0.80;;;20.70;42.90;;;;;;5060274;28;20260;-63
2022/11/08 03:20:05;;;;;;;1.87;1.00;;;20.70;42.80;;;;;;5054377;28;21496;-63
2022/11/08 03:22:31;;;;;;;0.87;0.87;;;20.70;42.90;;;;;;5056616;28;20545;-62
2022/11/08 03:24:56;;;;;;;1.30;1.07;;;20.70;42.90;;;;;;5058746;28;20469;-62
2022/11/08 03:27:22;;;;;;;0.90;0.87;;;20.70;42.80;;;;;;5059534;28;20217;-63
2022/11/08 03:29:48;;;;;;;1.30;1.00;;;20.70;42.80;;;;;;5058861;28;20217;-63
2022/11/08 03:32:15;;;;;;;1.63;1.00;;;20.70;42.80;;;;;;5054039;28;20695;-63
2022/11/08 03:34:41;;;;;;;0.97;0.87;;;20.70;42.90;;;;;;5051860;28;20476;-63
2022/11/08 03:37:08;;;;;;;0.80;0.80;;;20.70;42.90;;;;;;5054304;28;20470;-63
2022/11/08 03:39:34;;;;;;;1.23;0.97;;;20.70;42.80;;;;;;5054178;28;20213;-62
2022/11/08 03:42:03;;;;;;;1.00;0.90;;;20.70;42.80;;;;;;5037185;28;20477;-62
2022/11/08 03:44:29;;;;;;;1.10;0.93;;;20.70;42.90;;;;;;5055383;28;20633;-63
2022/11/08 03:46:55;;;;;;;1.20;1.10;;;20.70;42.90;;;;;;5057594;28;20650;-63
2022/11/08 03:49:20;;;;;;;0.90;0.80;;;20.70;42.90;;;;;;5052330;28;20996;-63
2022/11/08 03:51:46;;;;;;;0.80;0.80;;;20.70;42.90;;;;;;5055664;28;20296;-64
2022/11/08 03:54:12;;;;;;;1.00;0.97;;;20.70;42.90;;;;;;5056807;28;20316;-63
2022/11/08 03:56:37;;;;;;;0.90;0.90;;;20.70;42.90;;;;;;5030069;28;20579;-63
2022/11/08 03:59:03;;;;;;;1.00;0.90;;;20.70;42.90;;;;;;5057237;28;20221;-62
2022/11/08 04:01:29;;;;;;;1.00;1.00;;;20.70;42.90;;;;;;5057532;28;20232;-63
2022/11/08 04:03:54;;;;;;;1.20;1.00;;;20.70;42.90;;;;;;5055589;28;20756;-63
2022/11/08 04:06:20;;;;;;;0.90;0.80;;;20.70;42.90;;;;;;5056390;28;20612;-62
2022/11/08 04:08:45;;;;;;;1.30;1.10;;;20.70;42.90;;;;;;5057529;28;20218;-62
2022/11/08 04:16:39;;;;;;;0.97;0.87;;;20.70;42.90;;;;;;5057786;28;20524;-63
2022/11/08 04:21:52;;;;;;;1.00;0.90;;;20.70;42.90;;;;;;5054859;28;21477;-63
2022/11/08 04:24:17;;;;;;;0.83;0.83;;;20.70;42.90;;;;;;5055579;28;20508;-63
2022/11/08 04:26:43;;;;;;;1.10;1.00;;;20.70;42.90;;;;;;5040496;28;20805;-63
2022/11/08 04:29:09;;;;;;;1.10;0.90;;;20.70;42.90;;;;;;5053404;28;20222;-64
2022/11/08 04:31:35;;;;;;;0.97;0.90;;;20.70;42.90;;;;;;5056241;28;20226;-64
2022/11/08 04:34:01;;;;;;;1.00;0.90;;;20.70;42.90;;;;;;5058148;28;22058;-63
2022/11/08 04:36:26;;;;;;;0.87;0.87;;;20.70;42.90;;;;;;5053718;28;20543;-63
2022/11/08 04:38:52;;;;;;;1.10;1.00;;;20.70;42.80;;;;;;5051380;28;20763;-63
2022/11/08 04:41:20;;;;;;;1.60;1.03;;;20.70;42.80;;;;;;5054317;28;20225;-61
2022/11/08 04:43:47;;;;;;;0.80;0.80;;;20.70;42.80;;;;;;5054724;28;20264;-62
2022/11/08 04:46:18;;;;;;;1.20;1.00;;;20.70;42.80;;;;;;5056164;28;20859;-61
2022/11/08 04:48:44;;;;;;;1.33;1.00;;;20.70;42.90;;;;;;5058437;28;20458;-63
2022/11/08 04:51:16;;;;;;;1.13;0.83;;;20.70;43.60;;;;;;5056789;28;20458;-62
2022/11/08 04:53:42;;;;;;;0.80;0.80;;;20.70;42.90;;;;;;5055297;28;20458;-62
2022/11/08 04:56:10;;;;;;;1.13;0.90;;;20.70;42.80;;;;;;5043512;28;20456;-63
2022/11/08 04:58:41;;;;;;;1.10;1.00;;;20.70;42.80;;;;;;5049416;28;21406;-63
2022/11/08 05:01:08;;;;;;;1.00;0.90;;;20.70;42.80;;;;;;5056455;28;20446;-63
2022/11/08 05:03:34;;;;;;;0.90;0.90;;;20.70;42.80;;;;;;5054993;28;20481;-61
2022/11/08 05:06:09;;;;;;;0.90;0.90;;;20.70;42.80;;;;;;5054047;28;20965;-62
2022/11/08 05:08:35;;;;;;;1.10;0.90;;;20.70;42.80;;;;;;5050173;28;20271;-63
2022/11/08 05:11:06;;;;;;;1.20;1.00;;;20.70;42.80;;;;;;5056242;28;21284;-62
2022/11/08 05:13:33;;;;;;;0.80;0.80;;;20.70;43.50;;;;;;5057912;28;20240;-63
2022/11/08 05:16:04;;;;;;;1.10;1.00;;;20.70;42.80;;;;;;5055795;28;20459;-63
2022/11/08 05:18:31;;;;;;;1.10;0.90;;;20.70;42.70;;;;;;5054846;28;20467;-63
2022/11/08 05:23:43;;;;;;;0.80;0.80;;;20.70;42.70;;;;;;5054915;28;20476;-64
2022/11/08 05:26:09;;;;;;;1.00;0.90;;;20.70;42.80;;;;;;5059359;28;20985;-64
2022/11/08 05:28:35;;;;;;;1.20;1.10;;;20.70;42.70;;;;;;5051976;28;20487;-63
2022/11/08 05:31:01;;;;;;;1.47;1.03;;;20.70;42.70;;;;;;5055563;28;20465;-64
2022/11/08 05:33:27;;;;;;;1.00;0.90;;;20.70;43.50;;;;;;5051615;28;20480;-63
2022/11/08 05:35:52;;;;;;;1.50;1.10;;;20.80;42.70;;;;;;5053398;28;20458;-63
2022/11/08 05:38:18;;;;;;;0.93;0.87;;;20.80;42.70;;;;;;5032318;28;20229;-63
2022/11/08 05:40:44;;;;;;;0.80;0.80;;;20.80;42.70;;;;;;5050886;28;20221;-62
2022/11/08 05:43:10;;;;;;;2.37;1.00;;;20.80;42.70;;;;;;5049651;28;21026;-62
2022/11/08 05:45:36;;;;;;;0.90;0.90;;;20.80;42.60;;;;;;5052886;28;20685;-62
2022/11/08 05:48:03;;;;;;;0.97;0.87;;;20.80;42.70;;;;;;5058953;28;21169;-62
2022/11/08 05:50:33;;;;;;;1.00;0.90;;;20.80;42.60;;;;;;5054741;28;20969;-63
2022/11/08 05:52:59;;;;;;;0.90;0.80;;;20.80;42.60;;;;;;5055091;28;20949;-62
2022/11/08 05:55:25;;;;;;;1.20;1.10;;;20.80;42.60;;;;;;5051644;28;20520;-62
2022/11/08 05:57:50;;;;;;;1.00;0.90;;;20.80;42.60;;;;;;5050080;28;20248;-63
2022/11/08 06:00:16;;;;;;;1.33;0.97;;;20.80;42.60;;;;;;5050915;28;20600;-64
2022/11/08 06:02:42;;;;;;;1.73;0.90;;;20.80;42.60;;;;;;5050556;28;20229;-64
2022/11/08 06:05:08;;;;;;;1.00;0.90;;;20.80;42.70;;;;;;5050027;28;20891;-63
2022/11/08 06:07:34;;;;;;;1.07;0.97;;;20.80;42.60;;;;;;5053608;28;20324;-64
2022/11/08 06:10:00;;;;;;;1.23;0.90;;;20.80;42.70;;;;;;5055223;28;20454;-62
2022/11/08 06:12:25;;;;;;;0.97;0.93;;;20.80;42.60;;;;;;5055323;28;20828;-63
2022/11/08 06:14:51;;;;;;;1.80;0.90;;;20.80;42.70;;;;;;5053718;28;20217;-63
2022/11/08 06:17:16;;;;;;;1.17;1.07;;;20.80;42.70;;;;;;5051760;28;20699;-61
2022/11/08 06:19:42;;;;;;;1.23;1.00;;;20.80;42.70;;;;;;5015197;28;20308;-61
2022/11/08 06:22:07;;;;;;;1.93;1.03;;;20.80;42.70;;;;;;5054187;28;20243;-62
2022/11/08 06:24:33;;;;;;;1.50;1.17;;;20.80;42.60;;;;;;5041735;28;20229;-63
2022/11/08 06:26:58;;;;;;;0.80;0.80;;;20.80;42.70;;;;;;5053063;28;21452;-65
2022/11/08 06:29:24;;;;;;;2.13;1.10;;;20.80;42.70;;;;;;5053900;28;20217;-64
2022/11/08 06:31:50;;;;;;;1.00;0.90;;;20.80;42.70;;;;;;5052012;28;20221;-63
2022/11/08 06:34:15;;;;;;;1.53;1.10;;;20.80;42.70;;;;;;5055195;28;20224;-65
2022/11/08 06:36:41;;;;;;;1.73;1.20;;;20.80;42.70;;;;;;5054556;28;20217;-63
2022/11/08 06:39:07;;;;;;;1.07;0.97;;;20.80;42.70;;;;;;5047812;28;20321;-63
2022/11/08 06:41:33;;;;;;;1.00;0.90;;;20.80;42.70;;;;;;5053887;28;20232;-63
2022/11/08 06:43:59;;;;;;;1.07;1.00;;;20.80;42.70;;;;;;5053539;28;20473;-63
2022/11/08 06:46:25;;;;;;;1.67;0.90;;;20.80;42.70;;;;;;5058537;28;20447;-63
2022/11/08 06:48:51;;;;;;;1.53;1.20;;;20.80;42.70;;;;;;5060026;28;20287;-63
2022/11/08 06:51:17;;;;;;;1.20;1.10;;;20.80;42.70;;;;;;5057506;28;20454;-63
2022/11/08 06:53:43;;;;;;;1.10;1.00;;;20.80;42.70;;;;;;5059073;28;20257;-64
2022/11/08 06:56:08;;;;;;;1.00;0.90;;;20.80;42.80;;;;;;5056369;28;20236;-63
2022/11/08 06:58:34;;;;;;;2.83;1.43;;;20.80;42.70;;;;;;5057477;28;21038;-63
2022/11/08 07:01:05;;;;;;;1.77;1.20;;;20.80;42.70;;;;;;5060781;28;20296;-63
2022/11/08 07:03:31;;;;;;;1.20;1.10;;;20.80;42.70;;;;;;5058617;28;20229;-63
2022/11/08 07:05:56;;;;;;;1.10;1.00;;;20.80;42.70;;;;;;5056730;28;20466;-64
2022/11/08 07:08:22;;;;;;;1.20;1.10;;;20.80;42.70;;;;;;5056251;28;20473;-63
2022/11/08 07:10:48;;;;;;;3.47;1.30;;;20.80;42.70;;;;;;5058150;28;20789;-63
2022/11/08 07:13:14;;;;;;;1.23;1.13;;;20.80;42.70;;;;;;5059086;28;21806;-63
2022/11/08 07:15:40;;;;;;;1.30;1.03;;;20.80;42.70;;;;;;5058813;28;20565;-63
2022/11/08 07:18:08;;;;;;;1.00;0.90;;;20.80;42.80;;;;;;5058258;28;20560;-63
2022/11/08 07:20:34;;;;;;;1.40;1.30;;;20.80;42.70;;;;;;5060519;28;20552;-63
2022/11/08 07:23:00;;;;;;;1.10;1.00;;;20.80;42.70;;;;;;5054893;28;20527;-63
2022/11/08 07:25:27;;;;;;;1.17;1.07;;;20.80;42.70;;;;;;5062409;28;20229;-64
2022/11/08 07:27:58;;;;;;;2.37;1.57;;;20.80;42.70;;;;;;5063234;28;20440;-64
2022/11/08 07:30:24;;;;;;;1.10;1.00;;;20.90;42.80;;;;;;5061085;28;20451;-63
2022/11/08 07:32:51;;;;;;;1.33;1.10;;;20.80;42.70;;;;;;5061178;28;20466;-63
2022/11/08 07:35:16;;;;;;;1.50;1.10;;;20.80;42.80;;;;;;5058933;28;20533;-63
2022/11/08 07:37:42;;;;;;;1.40;0.77;;;20.80;42.70;;;;;;5064026;28;21017;-63
2022/11/08 07:40:09;;;;;;;1.67;1.23;;;20.80;42.70;;;;;;5063011;28;20233;-63
2022/11/08 07:42:39;;;;;;;1.33;1.03;;;20.80;42.70;;;;;;5059377;28;20259;-64
2022/11/08 07:45:06;;;;;;;1.10;1.00;;;20.90;42.80;;;;;;5061753;28;20523;-63
2022/11/08 07:47:32;;;;;;;1.50;0.90;;;20.80;42.70;;;;;;5059149;28;20505;-63
2022/11/08 07:49:58;;;;;;;1.10;1.03;;;20.80;42.80;;;;;;5061558;28;21509;-63
2022/11/08 07:52:24;;;;;;;1.83;1.10;;;20.90;42.80;;;;;;5061352;28;20300;-63
2022/11/08 07:54:49;;;;;;;1.20;1.10;;;20.90;42.80;;;;;;5062932;28;20217;-64
2022/11/08 07:57:15;;;;;;;1.83;1.10;;;20.90;42.80;;;;;;5059718;28;20245;-64
2022/11/08 07:59:40;;;;;;;1.40;1.10;;;20.90;42.80;;;;;;5061883;28;20217;-63
2022/11/08 08:02:09;;;;;;;1.10;1.00;;;20.90;42.80;;;;;;5060749;28;20681;-63
2022/11/08 08:04:35;;;;;;;1.17;0.90;;;20.90;42.80;;;;;;5060873;28;21006;-64
2022/11/08 08:07:00;;;;;;;1.40;1.30;;;20.80;42.80;;;;;;5063130;28;20548;-63
2022/11/08 08:09:26;;;;;;;1.27;1.17;;;20.80;42.70;;;;;;5058346;28;20221;-63
2022/11/08 08:11:51;;;;;;;1.27;1.17;;;20.80;42.70;;;;;;5060268;28;20268;-63
2022/11/08 08:14:17;;;;;;;1.73;1.00;;;20.90;42.80;;;;;;5058685;28;20298;-64
2022/11/08 08:16:42;;;;;;;1.30;1.20;;;20.80;42.80;;;;;;5059948;28;20229;-64
2022/11/08 08:19:08;;;;;;;1.20;1.10;;;20.90;42.80;;;;;;5061159;28;20296;-63
2022/11/08 08:21:33;;;;;;;1.30;1.20;;;20.90;42.80;;;;;;5061540;28;20225;-63
2022/11/08 08:23:59;;;;;;;1.20;1.10;;;20.90;42.80;;;;;;5062259;28;20222;-63
2022/11/08 08:26:24;;;;;;;1.13;1.03;;;20.90;42.80;;;;;;5059795;28;20220;-63
2022/11/08 08:28:50;;;;;;;1.30;1.20;;;20.90;42.80;;;;;;5058698;28;20217;-63
2022/11/08 08:31:16;;;;;;;1.20;1.10;;;20.90;42.80;;;;;;5059753;28;20217;-63
2022/11/08 08:33:42;;;;;;;1.37;1.07;;;20.90;42.80;;;;;;5060578;28;20235;-63
2022/11/08 08:36:07;;;;;;;1.07;0.97;;;20.90;43.60;;;;;;5062051;28;20217;-63
2022/11/08 08:38:34;;;;;;;1.50;1.40;;;20.90;42.80;;;;;;5058521;28;20823;-64
2022/11/08 08:41:00;;;;;;;1.20;1.10;;;20.90;42.80;;;;;;5059458;28;20217;-64
2022/11/08 08:43:26;;;;;;;0.93;0.90;;;20.90;42.80;;;;;;5060679;28;20561;-63
2022/11/08 08:45:53;;;;;;;1.03;0.93;;;20.90;42.80;;;;;;5044990;28;20900;-63
2022/11/08 08:48:19;;;;;;;1.20;1.10;;;20.90;42.80;;;;;;5060973;28;20465;-63
2022/11/08 08:50:45;;;;;;;3.67;1.20;;;20.90;42.90;;;;;;5061715;28;20538;-64
2022/11/08 08:53:11;;;;;;;1.37;1.20;;;20.90;42.80;;;;;;5061249;28;20524;-63
2022/11/08 08:55:38;;;;;;;1.10;1.00;;;20.90;43.00;;;;;;5060779;28;20259;-64
2022/11/08 08:58:04;;;;;;;1.13;1.03;;;20.90;42.90;;;;;;5061512;28;20224;-64
2022/11/08 09:00:30;;;;;;;1.10;1.00;;;20.90;42.90;;;;;;5059734;28;20446;-63
2022/11/08 09:03:05;;;;;;;1.07;1.00;;;20.90;43.00;;;;;;5059812;28;20485;-63
2022/11/08 09:05:31;;;;;;;1.10;1.00;;;20.90;42.90;;;;;;5058165;28;20487;-64
2022/11/08 09:07:57;;;;;;;1.37;1.10;;;20.90;43.00;;;;;;5061063;28;20455;-63
2022/11/08 09:10:23;;;;;;;1.13;1.03;;;20.90;42.90;;;;;;5060104;28;20500;-64
2022/11/08 09:12:49;;;;;;;2.20;2.00;;;20.90;43.00;;;;;;5062648;28;20624;-64
2022/11/08 09:15:15;;;;;;;1.37;1.07;;;20.90;42.90;;;;;;5061771;28;20229;-63
2022/11/08 09:17:41;;;;;;;3.70;1.53;;;20.90;43.00;;;;;;5058070;28;20367;-63
2022/11/08 09:20:07;;;;;;;1.10;1.00;;;20.90;43.00;;;;;;5058244;28;20537;-63
2022/11/08 09:22:33;;;;;;;1.00;1.00;;;20.80;42.80;;;;;;5058646;28;20621;-63
2022/11/08 09:24:59;;;;;;;1.23;1.13;;;20.80;42.80;;;;;;5041218;28;20466;-64
2022/11/08 09:27:27;;;;;;;1.40;1.10;;;20.90;42.90;;;;;;5060757;28;20590;-64
2022/11/08 09:29:53;;;;;;;1.17;1.07;;;20.80;42.80;;;;;;5045460;28;20798;-63
2022/11/08 09:32:19;;;;;;;1.40;1.30;;;20.80;42.90;;;;;;5058380;28;20507;-64
2022/11/08 09:34:44;;;;;;;1.87;1.17;;;20.90;43.00;;;;;;5059589;28;20270;-63
2022/11/08 09:37:10;;;;;;;1.10;1.00;;;20.90;42.90;;;;;;5060402;28;20691;-64
2022/11/08 09:39:35;;;;;;;1.23;1.03;;;20.90;42.90;;;;;;5052795;28;20759;-64
2022/11/08 09:42:09;;;;;;;1.40;1.20;;;20.90;43.00;;;;;;5056588;28;20314;-63
2022/11/08 09:44:51;;;;;;;1.20;1.10;;;20.90;42.90;;;;;;5056797;28;20228;-64
2022/11/08 09:47:22;;;;;;;1.23;1.13;;;20.90;42.90;;;;;;5057684;28;20450;-63
2022/11/08 09:50:13;;;;;;;1.27;1.17;;;20.80;42.90;;;;;;5060186;28;20749;-64
2022/11/08 09:52:42;;;;;;;1.30;1.10;;;20.80;42.90;;;;;;5056619;28;20438;-63
2022/11/08 09:55:10;;;;;;;1.13;1.00;;;20.80;42.90;;;;;;5057875;28;20453;-64
2022/11/08 09:58:02;;;;;;;1.20;1.10;;;20.80;42.90;;;;;;5057105;28;20420;-63
2022/11/08 10:00:28;;;;;;;1.63;1.53;;;20.80;42.80;;;;;;5005992;28;20463;-64
2022/11/08 10:02:54;;;;;;;1.17;1.07;;;20.80;42.90;;;;;;5060525;28;20462;-64
2022/11/08 10:05:20;;;;;;;1.20;1.10;;;20.80;42.90;;;;;;5060115;28;20221;-64
2022/11/08 10:07:55;;;;;;;1.17;1.07;;;20.80;42.90;;;;;;5058292;28;20455;-64
2022/11/08 10:10:54;;;;;;;1.30;1.20;;;20.80;42.90;;;;;;5058417;28;21001;-64
2022/11/08 10:13:47;;;;;;;1.20;1.10;;;20.80;42.90;;;;;;5056409;28;20525;-64
2022/11/08 10:16:25;;;;;;;1.10;1.10;;;20.80;42.90;;;;;;5060114;28;20450;-63
2022/11/08 10:19:19;;;;;;;1.20;1.03;;;20.80;42.90;;;;;;5058373;28;20453;-64
2022/11/08 10:21:44;;;;;;;1.00;0.90;;;20.80;42.90;;;;;;5059094;28;20455;-64
2022/11/08 10:24:34;;;;;;;1.00;1.00;;;20.80;42.90;;;;;;5057088;28;20480;-64
2022/11/08 10:27:01;;;;;;;1.57;1.47;;;20.80;42.90;;;;;;5059158;28;20224;-64
2022/11/08 10:29:45;;;;;;;1.20;1.10;;;20.80;43.00;;;;;;5058217;28;20474;-64
2022/11/08 10:32:21;;;;;;;1.07;0.97;;;20.80;43.00;;;;;;5058397;28;20950;-63
2022/11/08 10:35:18;;;;;;;1.10;1.00;;;20.80;43.00;;;;;;5056918;28;20833;-64
2022/11/08 10:37:44;;;;;;;1.03;0.93;;;20.80;42.90;;;;;;5055589;28;20930;-64
2022/11/08 10:40:38;;;;;;;1.20;1.10;;;20.80;43.00;;;;;;5056901;28;20458;-63
2022/11/08 10:43:22;;;;;;;1.30;1.20;;;20.80;42.90;;;;;;5056838;28;20260;-63
2022/11/08 10:45:48;;;;;;;1.43;1.33;;;20.80;43.00;;;;;;5057583;28;20457;-63
2022/11/08 10:48:14;;;;;;;3.00;1.37;;;20.80;43.80;;;;;;5057208;28;20469;-65
2022/11/08 10:50:44;;;;;;;0.97;0.93;;;20.80;43.00;;;;;;5055599;28;20348;-63
2022/11/08 10:53:28;;;;;;;1.23;1.13;;;20.80;43.00;;;;;;5058649;28;20263;-63
2022/11/08 10:56:03;;;;;;;1.00;0.90;;;20.80;43.00;;;;;;5063893;28;20548;-64
2022/11/08 10:58:40;;;;;;;1.10;1.00;;;20.80;43.00;;;;;;5061831;28;20462;-63
2022/11/08 11:01:16;;;;;;;1.20;1.10;;;20.80;43.00;;;;;;5062176;28;20441;-63
2022/11/08 11:03:42;;;;;;;1.00;0.90;;;20.80;43.00;;;;;;5057735;28;20595;-63
2022/11/08 11:06:26;;;;;;;1.10;1.00;;;20.80;43.00;;;;;;5060736;28;20442;-63
2022/11/08 11:08:59;;;;;;;1.30;1.20;;;20.80;43.00;;;;;;5061510;28;20466;-64
2022/11/08 11:11:31;;;;;;;1.20;1.10;;;20.80;43.00;;;;;;5062616;28;20453;-63
2022/11/08 11:14:14;;;;;;;1.20;1.10;;;20.80;43.00;;;;;;5060647;28;20461;-63
2022/11/08 11:17:04;;;;;;;1.17;1.07;;;20.80;43.00;;;;;;5059389;28;20470;-63
2022/11/08 11:19:31;;;;;;;1.20;1.10;;;20.80;43.00;;;;;;5039265;28;21710;-64
2022/11/08 11:22:02;;;;;;;1.10;1.00;;;20.80;43.00;;;;;;5063021;28;20933;-64
2022/11/08 11:24:28;;;;;;;2.07;1.10;;;20.80;43.00;;;;;;5062157;28;20454;-64
2022/11/08 11:26:57;;;;;;;1.27;1.17;;;20.80;43.00;;;;;;5062397;28;20831;-63
2022/11/08 11:29:27;;;;;;;1.13;1.03;;;20.80;43.00;;;;;;5059806;28;20228;-63
2022/11/08 11:31:53;;;;;;;1.43;1.23;;;20.80;43.00;;;;;;5060614;28;20571;-63
2022/11/08 11:34:38;;;;;;;1.20;1.10;;;20.80;43.00;;;;;;5062665;28;20470;-63
2022/11/08 11:37:17;;;;;;;1.30;1.20;;;20.80;43.00;;;;;;5061338;28;21011;-63
2022/11/08 11:40:03;;;;;;;2.23;1.00;;;20.80;43.00;;;;;;5061780;28;20461;-63
2022/11/08 11:42:55;;;;;;;1.33;1.23;;;20.80;42.90;;;;;;5060378;28;20460;-64
2022/11/08 11:45:27;;;;;;;1.03;1.00;;;20.80;42.90;;;;;;5059417;28;20464;-63
2022/11/08 11:47:56;;;;;;;1.33;1.07;;;20.80;43.00;;;;;;5060524;28;20469;-63
2022/11/08 11:50:35;;;;;;;2.00;1.00;;;20.80;43.00;;;;;;5061136;28;20519;-63
2022/11/08 11:53:04;;;;;;;1.07;1.00;;;20.80;43.00;;;;;;5041212;28;20581;-63
2022/11/08 11:55:57;;;;;;;1.00;0.90;;;20.80;43.00;;;;;;5060436;28;20465;-63
2022/11/08 11:59:01;;;;;;;1.23;1.13;;;20.80;43.00;;;;;;5060369;28;20465;-63
2022/11/08 12:01:45;;;;;;;1.30;1.20;;;20.80;43.00;;;;;;4976758;28;20461;-63
2022/11/08 12:04:28;;;;;;;1.10;1.00;;;20.80;43.00;;;;;;5055366;28;20553;-63
2022/11/08 12:07:00;;;;;;;1.40;1.30;;;20.80;43.00;;;;;;5057553;28;20429;-63
2022/11/08 12:09:50;;;;;;;2.80;1.10;;;20.80;43.00;;;;;;5060042;28;20474;-63
2022/11/08 12:12:32;;;;;;;1.27;1.17;;;20.80;43.10;;;;;;5058617;28;20446;-63
2022/11/08 12:15:10;;;;;;;1.10;1.00;;;20.80;43.10;;;;;;5060175;28;20561;-64
2022/11/08 12:17:48;;;;;;;1.10;0.97;;;20.80;43.10;;;;;;5060406;28;20469;-63
2022/11/08 12:20:33;;;;;;;1.30;1.20;;;20.80;43.00;;;;;;5061740;28;20433;-64
2022/11/08 12:23:14;;;;;;;1.27;1.17;;;20.80;43.10;;;;;;5059316;28;20548;-63
2022/11/08 12:25:58;;;;;;;0.90;0.90;;;20.80;43.10;;;;;;5059702;28;20446;-63
2022/11/08 12:28:35;;;;;;;1.30;1.20;;;20.80;43.10;;;;;;5061385;28;20466;-63
2022/11/08 12:31:21;;;;;;;1.20;1.10;;;20.80;43.10;;;;;;5062031;28;20475;-63
2022/11/08 12:33:50;;;;;;;0.93;0.90;;;20.80;43.80;;;;;;5060366;28;20454;-63
2022/11/08 12:36:21;;;;;;;1.23;1.13;;;20.80;43.10;;;;;;5054590;28;22312;-64
2022/11/08 12:38:57;;;;;;;1.20;1.00;;;20.80;43.10;;;;;;5057429;28;20488;-64
2022/11/08 12:41:29;;;;;;;1.10;1.00;;;20.80;43.00;;;;;;5059151;28;20515;-63
2022/11/08 12:44:03;;;;;;;1.23;1.00;;;20.80;43.80;;;;;;5061944;28;20533;-63
2022/11/08 12:46:35;;;;;;;1.20;1.10;;;20.80;43.10;;;;;;5056853;28;20925;-63
2022/11/08 12:49:17;;;;;;;1.10;1.00;;;20.80;43.00;;;;;;5059717;28;20549;-63
2022/11/08 12:52:07;;;;;;;0.93;0.93;;;20.80;43.10;;;;;;5057174;28;20462;-63
2022/11/08 12:54:40;;;;;;;1.13;1.03;;;20.80;43.10;;;;;;5043714;28;20446;-63
2022/11/08 12:57:15;;;;;;;1.20;1.10;;;20.80;43.10;;;;;;5061259;28;20505;-64
2022/11/08 12:59:45;;;;;;;1.30;1.20;;;20.80;43.10;;;;;;5058962;28;20453;-63
2022/11/08 13:02:27;;;;;;;1.13;1.03;;;20.80;43.10;;;;;;5060281;28;20450;-63
2022/11/08 13:04:58;;;;;;;1.00;1.00;;;20.80;43.10;;;;;;5057720;28;20462;-63
2022/11/08 13:07:33;;;;;;;1.73;0.90;;;20.80;43.10;;;;;;5057978;28;20450;-63
2022/11/08 13:10:10;;;;;;;1.20;1.10;;;20.80;43.10;;;;;;5059079;28;20470;-64
2022/11/08 13:13:01;;;;;;;1.00;0.90;;;20.80;43.00;;;;;;5060178;28;20514;-63
2022/11/08 13:15:28;;;;;;;1.10;1.00;;;20.80;43.10;;;;;;5057488;28;20496;-64
2022/11/08 13:18:22;;;;;;;1.03;0.93;;;20.80;43.10;;;;;;5058558;28;20473;-64
2022/11/08 13:20:48;;;;;;;1.20;1.10;;;20.80;43.10;;;;;;5059610;28;20453;-64